sensor_id;sensor_type;location;lat;lon;timestamp;P1;durP1;ratioP1;P2;durP2;ratioP2
21569;SDS011;57598;50.888;4.746;2023-04-24T00:02:07;57.05;;;51.25;;
21569;SDS011;57598;50.888;4.746;2023-04-24T00:04:35;53.75;;;48.40;;
21569;SDS011;57598;50.888;4.746;2023-04-24T00:07:06;51.47;;;46.40;;
21569;SDS011;57598;50.888;4.746;2023-04-24T00:09:33;55.28;;;49.88;;
21569;SDS011;57598;50.888;4.746;2023-04-24T00:12:00;56.67;;;50.20;;
21569;SDS011;57598;50.888;4.746;2023-04-24T00:14:29;54.25;;;48.72;;
21569;SDS011;57598;50.888;4.746;2023-04-24T00:16:56;50.90;;;45.80;;
21569;SDS011;57598;50.888;4.746;2023-04-24T00:19:23;53.78;;;48.25;;
21569;SDS011;57598;50.888;4.746;2023-04-24T00:21:50;53.05;;;47.90;;
21569;SDS011;57598;50.888;4.746;2023-04-24T00:24:19;54.00;;;48.80;;
21569;SDS011;57598;50.888;4.746;2023-04-24T00:26:46;53.05;;;47.88;;
21569;SDS011;57598;50.888;4.746;2023-04-24T00:29:13;50.40;;;45.42;;
21569;SDS011;57598;50.888;4.746;2023-04-24T00:31:40;57.95;;;52.20;;
21569;SDS011;57598;50.888;4.746;2023-04-24T00:34:07;56.40;;;50.65;;
21569;SDS011;57598;50.888;4.746;2023-04-24T00:36:35;56.95;;;51.38;;
21569;SDS011;57598;50.888;4.746;2023-04-24T00:39:02;55.60;;;50.15;;
21569;SDS011;57598;50.888;4.746;2023-04-24T00:41:31;56.75;;;50.70;;
21569;SDS011;57598;50.888;4.746;2023-04-24T00:43:58;61.03;;;54.78;;
21569;SDS011;57598;50.888;4.746;2023-04-24T00:46:24;59.60;;;53.50;;
21569;SDS011;57598;50.888;4.746;2023-04-24T00:48:52;70.38;;;63.53;;
21569;SDS011;57598;50.888;4.746;2023-04-24T00:51:19;173.35;;;161.77;;
21569;SDS011;57598;50.888;4.746;2023-04-24T00:53:46;182.93;;;170.55;;
21569;SDS011;57598;50.888;4.746;2023-04-24T00:56:13;156.55;;;145.00;;
21569;SDS011;57598;50.888;4.746;2023-04-24T00:58:41;123.07;;;113.00;;
21569;SDS011;57598;50.888;4.746;2023-04-24T02:20:01;56.10;;;50.15;;
21569;SDS011;57598;50.888;4.746;2023-04-24T02:22:29;54.03;;;48.42;;
21569;SDS011;57598;50.888;4.746;2023-04-24T02:24:56;57.35;;;51.25;;
21569;SDS011;57598;50.888;4.746;2023-04-24T02:27:23;60.20;;;53.80;;
21569;SDS011;57598;50.888;4.746;2023-04-24T02:29:50;59.80;;;53.25;;
21569;SDS011;57598;50.888;4.746;2023-04-24T02:32:17;59.88;;;53.58;;
21569;SDS011;57598;50.888;4.746;2023-04-24T02:34:46;60.85;;;54.35;;
21569;SDS011;57598;50.888;4.746;2023-04-24T02:37:13;63.70;;;56.63;;
21569;SDS011;57598;50.888;4.746;2023-04-24T02:39:40;59.03;;;52.75;;
21569;SDS011;57598;50.888;4.746;2023-04-24T02:42:07;60.08;;;53.63;;
21569;SDS011;57598;50.888;4.746;2023-04-24T02:44:34;63.30;;;56.50;;
21569;SDS011;57598;50.888;4.746;2023-04-24T02:47:01;64.25;;;50.80;;
21569;SDS011;57598;50.888;4.746;2023-04-24T02:49:28;60.83;;;53.40;;
21569;SDS011;57598;50.888;4.746;2023-04-24T02:51:57;56.00;;;49.80;;
21569;SDS011;57598;50.888;4.746;2023-04-24T02:54:24;57.90;;;50.35;;
21569;SDS011;57598;50.888;4.746;2023-04-24T02:56:51;57.63;;;51.45;;
21569;SDS011;57598;50.888;4.746;2023-04-24T03:02:16;63.70;;;57.10;;
21569;SDS011;57598;50.888;4.746;2023-04-24T03:04:43;64.93;;;55.53;;
21569;SDS011;57598;50.888;4.746;2023-04-24T03:07:11;72.82;;;58.00;;
21569;SDS011;57598;50.888;4.746;2023-04-24T03:09:39;103.63;;;92.47;;
21569;SDS011;57598;50.888;4.746;2023-04-24T03:12:06;124.00;;;114.38;;
21569;SDS011;57598;50.888;4.746;2023-04-24T03:14:33;206.30;;;192.32;;
21569;SDS011;57598;50.888;4.746;2023-04-24T03:17:00;194.02;;;180.65;;
21569;SDS011;57598;50.888;4.746;2023-04-24T03:19:27;179.95;;;167.90;;
21569;SDS011;57598;50.888;4.746;2023-04-24T03:21:54;170.93;;;159.20;;
21569;SDS011;57598;50.888;4.746;2023-04-24T03:24:28;178.52;;;165.90;;
21569;SDS011;57598;50.888;4.746;2023-04-24T03:26:55;188.82;;;175.75;;
21569;SDS011;57598;50.888;4.746;2023-04-24T03:29:22;131.73;;;121.30;;
21569;SDS011;57598;50.888;4.746;2023-04-24T03:31:49;136.30;;;126.00;;
21569;SDS011;57598;50.888;4.746;2023-04-24T03:34:16;140.20;;;129.88;;
21569;SDS011;57598;50.888;4.746;2023-04-24T03:36:44;147.52;;;136.32;;
21569;SDS011;57598;50.888;4.746;2023-04-24T03:39:12;146.18;;;135.23;;
21569;SDS011;57598;50.888;4.746;2023-04-24T03:41:41;146.93;;;135.82;;
21569;SDS011;57598;50.888;4.746;2023-04-24T03:44:08;139.30;;;128.90;;
21569;SDS011;57598;50.888;4.746;2023-04-24T03:46:35;125.07;;;115.88;;
21569;SDS011;57598;50.888;4.746;2023-04-24T03:49:02;129.48;;;119.57;;
21569;SDS011;57598;50.888;4.746;2023-04-24T03:51:31;139.98;;;129.75;;
21569;SDS011;57598;50.888;4.746;2023-04-24T03:54:14;134.35;;;124.40;;
21569;SDS011;57598;50.888;4.746;2023-04-24T03:56:43;151.10;;;140.52;;
21569;SDS011;57598;50.888;4.746;2023-04-24T03:59:10;157.18;;;145.98;;
21569;SDS011;57598;50.888;4.746;2023-04-24T04:01:41;153.23;;;142.23;;
21569;SDS011;57598;50.888;4.746;2023-04-24T04:04:41;144.27;;;133.70;;
21569;SDS011;57598;50.888;4.746;2023-04-24T04:07:12;145.60;;;134.95;;
21569;SDS011;57598;50.888;4.746;2023-04-24T04:10:35;114.75;;;105.85;;
21569;SDS011;57598;50.888;4.746;2023-04-24T04:13:04;112.72;;;104.13;;
21569;SDS011;57598;50.888;4.746;2023-04-24T04:15:32;109.57;;;101.25;;
21569;SDS011;57598;50.888;4.746;2023-04-24T04:17:59;112.85;;;104.07;;
21569;SDS011;57598;50.888;4.746;2023-04-24T04:20:26;111.18;;;102.93;;
21569;SDS011;57598;50.888;4.746;2023-04-24T04:22:53;107.53;;;99.47;;
21569;SDS011;57598;50.888;4.746;2023-04-24T04:25:20;109.03;;;100.50;;
21569;SDS011;57598;50.888;4.746;2023-04-24T04:27:48;119.85;;;110.07;;
21569;SDS011;57598;50.888;4.746;2023-04-24T04:30:17;125.03;;;116.03;;
21569;SDS011;57598;50.888;4.746;2023-04-24T04:32:46;123.63;;;114.53;;
21569;SDS011;57598;50.888;4.746;2023-04-24T04:35:13;132.38;;;123.18;;
21569;SDS011;57598;50.888;4.746;2023-04-24T04:37:40;134.77;;;125.57;;
21569;SDS011;57598;50.888;4.746;2023-04-24T04:40:07;147.18;;;137.27;;
21569;SDS011;57598;50.888;4.746;2023-04-24T04:42:36;164.25;;;153.70;;
21569;SDS011;57598;50.888;4.746;2023-04-24T04:45:05;181.55;;;169.20;;
21569;SDS011;57598;50.888;4.746;2023-04-24T04:47:35;153.75;;;143.35;;
21569;SDS011;57598;50.888;4.746;2023-04-24T04:50:03;158.10;;;147.40;;
21569;SDS011;57598;50.888;4.746;2023-04-24T04:52:31;140.75;;;130.65;;
21569;SDS011;57598;50.888;4.746;2023-04-24T04:54:58;135.20;;;125.80;;
21569;SDS011;57598;50.888;4.746;2023-04-24T04:57:27;147.30;;;137.38;;
21569;SDS011;57598;50.888;4.746;2023-04-24T04:59:55;150.43;;;140.23;;
21569;SDS011;57598;50.888;4.746;2023-04-24T05:02:22;157.75;;;146.90;;
21569;SDS011;57598;50.888;4.746;2023-04-24T05:04:50;164.50;;;153.50;;
21569;SDS011;57598;50.888;4.746;2023-04-24T05:07:17;159.95;;;149.07;;
21569;SDS011;57598;50.888;4.746;2023-04-24T05:09:45;158.10;;;147.48;;
21569;SDS011;57598;50.888;4.746;2023-04-24T05:12:12;167.10;;;156.05;;
21569;SDS011;57598;50.888;4.746;2023-04-24T05:14:42;152.52;;;141.95;;
21569;SDS011;57598;50.888;4.746;2023-04-24T05:17:26;171.02;;;159.32;;
21569;SDS011;57598;50.888;4.746;2023-04-24T05:23:08;152.10;;;141.90;;
21569;SDS011;57598;50.888;4.746;2023-04-24T05:25:45;155.40;;;144.80;;
21569;SDS011;57598;50.888;4.746;2023-04-24T05:29:04;154.68;;;144.07;;
21569;SDS011;57598;50.888;4.746;2023-04-24T05:31:31;156.95;;;146.15;;
21569;SDS011;57598;50.888;4.746;2023-04-24T05:37:19;152.85;;;142.13;;
21569;SDS011;57598;50.888;4.746;2023-04-24T05:39:46;151.27;;;141.10;;
21569;SDS011;57598;50.888;4.746;2023-04-24T05:42:13;163.35;;;152.02;;
21569;SDS011;57598;50.888;4.746;2023-04-24T05:44:41;152.90;;;142.48;;
21569;SDS011;57598;50.888;4.746;2023-04-24T05:47:08;151.82;;;140.77;;
21569;SDS011;57598;50.888;4.746;2023-04-24T05:52:58;138.40;;;127.97;;
21569;SDS011;57598;50.888;4.746;2023-04-24T05:56:02;132.65;;;123.05;;
21569;SDS011;57598;50.888;4.746;2023-04-24T05:58:33;131.45;;;121.20;;
21569;SDS011;57598;50.888;4.746;2023-04-24T06:01:06;133.77;;;124.05;;
21569;SDS011;57598;50.888;4.746;2023-04-24T06:04:20;127.40;;;118.05;;
21569;SDS011;57598;50.888;4.746;2023-04-24T06:07:24;132.13;;;122.25;;
21569;SDS011;57598;50.888;4.746;2023-04-24T06:13:46;130.15;;;119.63;;
21569;SDS011;57598;50.888;4.746;2023-04-24T06:16:14;132.43;;;122.38;;
21569;SDS011;57598;50.888;4.746;2023-04-24T06:18:41;147.63;;;137.02;;
21569;SDS011;57598;50.888;4.746;2023-04-24T06:21:16;155.45;;;144.65;;
21569;SDS011;57598;50.888;4.746;2023-04-24T06:23:59;161.95;;;150.88;;
21569;SDS011;57598;50.888;4.746;2023-04-24T06:26:33;165.55;;;154.10;;
21569;SDS011;57598;50.888;4.746;2023-04-24T06:32:58;165.00;;;153.82;;
21569;SDS011;57598;50.888;4.746;2023-04-24T06:42:44;149.45;;;138.43;;
21569;SDS011;57598;50.888;4.746;2023-04-24T06:45:26;146.98;;;135.50;;
21569;SDS011;57598;50.888;4.746;2023-04-24T06:47:55;140.32;;;130.10;;
21569;SDS011;57598;50.888;4.746;2023-04-24T06:53:27;121.00;;;111.15;;
21569;SDS011;57598;50.888;4.746;2023-04-24T06:56:01;110.03;;;101.03;;
21569;SDS011;57598;50.888;4.746;2023-04-24T08:12:23;57.72;;;51.83;;
21569;SDS011;57598;50.888;4.746;2023-04-24T08:25:48;62.53;;;55.85;;
21569;SDS011;57598;50.888;4.746;2023-04-24T08:46:12;56.95;;;51.03;;
21569;SDS011;57598;50.888;4.746;2023-04-24T16:41:59;25.00;;;23.42;;
21569;SDS011;57598;50.888;4.746;2023-04-24T16:44:27;25.05;;;23.38;;
21569;SDS011;57598;50.888;4.746;2023-04-24T16:46:54;22.90;;;21.55;;
21569;SDS011;57598;50.888;4.746;2023-04-24T16:49:21;23.20;;;21.63;;
21569;SDS011;57598;50.888;4.746;2023-04-24T16:51:48;23.60;;;22.17;;
21569;SDS011;57598;50.888;4.746;2023-04-24T16:54:16;24.15;;;22.55;;
21569;SDS011;57598;50.888;4.746;2023-04-24T16:56:44;23.83;;;22.00;;
21569;SDS011;57598;50.888;4.746;2023-04-24T16:59:11;25.52;;;22.60;;
21569;SDS011;57598;50.888;4.746;2023-04-24T17:01:38;23.00;;;21.58;;
21569;SDS011;57598;50.888;4.746;2023-04-24T17:04:05;23.65;;;22.25;;
21569;SDS011;57598;50.888;4.746;2023-04-24T17:06:32;23.30;;;21.90;;
21569;SDS011;57598;50.888;4.746;2023-04-24T17:09:00;23.45;;;21.95;;
21569;SDS011;57598;50.888;4.746;2023-04-24T17:11:27;21.40;;;20.20;;
21569;SDS011;57598;50.888;4.746;2023-04-24T17:13:56;21.45;;;20.25;;
21569;SDS011;57598;50.888;4.746;2023-04-24T17:16:24;23.38;;;21.63;;
21569;SDS011;57598;50.888;4.746;2023-04-24T17:18:51;24.27;;;22.55;;
21569;SDS011;57598;50.888;4.746;2023-04-24T17:21:18;23.73;;;22.13;;
21569;SDS011;57598;50.888;4.746;2023-04-24T17:23:45;22.90;;;21.50;;
21569;SDS011;57598;50.888;4.746;2023-04-24T17:26:12;23.38;;;21.98;;
21569;SDS011;57598;50.888;4.746;2023-04-24T17:28:39;22.77;;;21.48;;
21569;SDS011;57598;50.888;4.746;2023-04-24T17:31:08;23.25;;;21.77;;
21569;SDS011;57598;50.888;4.746;2023-04-24T17:33:35;22.80;;;21.33;;
21569;SDS011;57598;50.888;4.746;2023-04-24T17:36:02;22.73;;;21.02;;
21569;SDS011;57598;50.888;4.746;2023-04-24T17:38:30;21.40;;;19.95;;
21569;SDS011;57598;50.888;4.746;2023-04-24T17:40:58;21.42;;;20.23;;
21569;SDS011;57598;50.888;4.746;2023-04-24T17:43:25;21.08;;;19.88;;
21569;SDS011;57598;50.888;4.746;2023-04-24T17:45:53;20.98;;;19.77;;
21569;SDS011;57598;50.888;4.746;2023-04-24T17:48:22;21.00;;;19.80;;
21569;SDS011;57598;50.888;4.746;2023-04-24T17:50:49;22.63;;;21.15;;
21569;SDS011;57598;50.888;4.746;2023-04-24T17:53:16;20.65;;;19.45;;
21569;SDS011;57598;50.888;4.746;2023-04-24T17:55:45;21.05;;;19.77;;
21569;SDS011;57598;50.888;4.746;2023-04-24T17:58:12;22.30;;;21.00;;
21569;SDS011;57598;50.888;4.746;2023-04-24T18:00:40;21.20;;;20.00;;
21569;SDS011;57598;50.888;4.746;2023-04-24T18:03:07;24.33;;;21.85;;
21569;SDS011;57598;50.888;4.746;2023-04-24T18:05:37;21.10;;;19.90;;
21569;SDS011;57598;50.888;4.746;2023-04-24T18:08:04;22.35;;;21.02;;
21569;SDS011;57598;50.888;4.746;2023-04-24T18:10:32;21.77;;;20.58;;
21569;SDS011;57598;50.888;4.746;2023-04-24T18:13:00;21.10;;;19.90;;
21569;SDS011;57598;50.888;4.746;2023-04-24T18:15:28;21.55;;;20.35;;
21569;SDS011;57598;50.888;4.746;2023-04-24T18:17:55;21.95;;;20.75;;
21569;SDS011;57598;50.888;4.746;2023-04-24T18:20:22;22.90;;;21.60;;
21569;SDS011;57598;50.888;4.746;2023-04-24T18:22:53;22.80;;;21.50;;
21569;SDS011;57598;50.888;4.746;2023-04-24T18:25:35;23.60;;;22.30;;
21569;SDS011;57598;50.888;4.746;2023-04-24T18:28:27;24.45;;;23.05;;
21569;SDS011;57598;50.888;4.746;2023-04-24T18:31:28;24.48;;;23.10;;
21569;SDS011;57598;50.888;4.746;2023-04-24T18:34:00;25.38;;;23.98;;
21569;SDS011;57598;50.888;4.746;2023-04-24T18:36:28;26.17;;;24.77;;
21569;SDS011;57598;50.888;4.746;2023-04-24T18:38:58;26.48;;;25.02;;
21569;SDS011;57598;50.888;4.746;2023-04-24T18:41:32;27.15;;;25.65;;
21569;SDS011;57598;50.888;4.746;2023-04-24T18:44:05;27.55;;;26.05;;
21569;SDS011;57598;50.888;4.746;2023-04-24T18:46:39;28.80;;;27.00;;
21569;SDS011;57598;50.888;4.746;2023-04-24T18:49:07;29.40;;;27.30;;
21569;SDS011;57598;50.888;4.746;2023-04-24T18:51:35;28.67;;;27.05;;
21569;SDS011;57598;50.888;4.746;2023-04-24T18:54:07;28.40;;;26.80;;
21569;SDS011;57598;50.888;4.746;2023-04-24T18:56:37;29.30;;;27.60;;
21569;SDS011;57598;50.888;4.746;2023-04-24T18:59:05;27.98;;;26.48;;
21569;SDS011;57598;50.888;4.746;2023-04-24T19:01:33;27.85;;;26.35;;
21569;SDS011;57598;50.888;4.746;2023-04-24T19:04:01;28.40;;;26.80;;
21569;SDS011;57598;50.888;4.746;2023-04-24T19:06:29;29.67;;;27.98;;
21569;SDS011;57598;50.888;4.746;2023-04-24T19:08:58;30.75;;;29.05;;
21569;SDS011;57598;50.888;4.746;2023-04-24T19:11:26;30.20;;;28.50;;
21569;SDS011;57598;50.888;4.746;2023-04-24T19:13:55;30.85;;;28.90;;
21569;SDS011;57598;50.888;4.746;2023-04-24T19:16:27;29.67;;;28.08;;
21569;SDS011;57598;50.888;4.746;2023-04-24T19:18:54;30.98;;;28.98;;
21569;SDS011;57598;50.888;4.746;2023-04-24T19:21:25;31.00;;;29.30;;
21569;SDS011;57598;50.888;4.746;2023-04-24T19:23:55;33.03;;;31.23;;
21569;SDS011;57598;50.888;4.746;2023-04-24T19:26:27;32.05;;;30.25;;
21569;SDS011;57598;50.888;4.746;2023-04-24T19:28:55;32.78;;;30.92;;
21569;SDS011;57598;50.888;4.746;2023-04-24T19:31:24;32.30;;;30.50;;
21569;SDS011;57598;50.888;4.746;2023-04-24T19:33:52;32.30;;;30.50;;
21569;SDS011;57598;50.888;4.746;2023-04-24T19:36:20;32.33;;;30.13;;
21569;SDS011;57598;50.888;4.746;2023-04-24T19:38:48;32.28;;;30.48;;
21569;SDS011;57598;50.888;4.746;2023-04-24T19:41:16;32.05;;;30.25;;
21569;SDS011;57598;50.888;4.746;2023-04-24T19:43:44;31.70;;;29.90;;
21569;SDS011;57598;50.888;4.746;2023-04-24T19:46:14;31.70;;;29.90;;
21569;SDS011;57598;50.888;4.746;2023-04-24T19:48:41;31.80;;;30.00;;
21569;SDS011;57598;50.888;4.746;2023-04-24T19:51:11;31.10;;;29.40;;
21569;SDS011;57598;50.888;4.746;2023-04-24T19:53:39;30.60;;;28.90;;
21569;SDS011;57598;50.888;4.746;2023-04-24T19:56:08;30.60;;;28.90;;
21569;SDS011;57598;50.888;4.746;2023-04-24T19:58:35;31.30;;;29.30;;
21569;SDS011;57598;50.888;4.746;2023-04-24T20:01:04;29.98;;;28.27;;
21569;SDS011;57598;50.888;4.746;2023-04-24T20:03:32;30.83;;;28.70;;
21569;SDS011;57598;50.888;4.746;2023-04-24T20:05:59;28.42;;;26.83;;
21569;SDS011;57598;50.888;4.746;2023-04-24T20:08:27;30.92;;;28.83;;
21569;SDS011;57598;50.888;4.746;2023-04-24T20:10:55;27.98;;;26.45;;
21569;SDS011;57598;50.888;4.746;2023-04-24T20:13:31;30.35;;;28.55;;
21569;SDS011;57598;50.888;4.746;2023-04-24T20:18:56;29.40;;;27.80;;
21569;SDS011;57598;50.888;4.746;2023-04-24T20:21:23;31.48;;;29.33;;
21569;SDS011;57598;50.888;4.746;2023-04-24T20:26:55;32.63;;;30.63;;
21569;SDS011;57598;50.888;4.746;2023-04-24T20:29:23;31.65;;;29.75;;
21569;SDS011;57598;50.888;4.746;2023-04-24T20:31:52;31.45;;;29.65;;
21569;SDS011;57598;50.888;4.746;2023-04-24T20:34:20;31.58;;;29.77;;
21569;SDS011;57598;50.888;4.746;2023-04-24T20:36:48;31.02;;;29.30;;
21569;SDS011;57598;50.888;4.746;2023-04-24T20:39:18;35.33;;;32.22;;
21569;SDS011;57598;50.888;4.746;2023-04-24T20:41:45;32.20;;;30.10;;
21569;SDS011;57598;50.888;4.746;2023-04-24T20:44:12;31.00;;;29.23;;
21569;SDS011;57598;50.888;4.746;2023-04-24T20:46:39;31.30;;;29.30;;
21569;SDS011;57598;50.888;4.746;2023-04-24T20:49:21;31.73;;;29.77;;
21569;SDS011;57598;50.888;4.746;2023-04-24T20:51:50;30.10;;;28.40;;
21569;SDS011;57598;50.888;4.746;2023-04-24T20:54:17;32.88;;;30.98;;
21569;SDS011;57598;50.888;4.746;2023-04-24T20:56:44;32.58;;;30.58;;
21569;SDS011;57598;50.888;4.746;2023-04-24T20:59:11;34.85;;;31.98;;
21569;SDS011;57598;50.888;4.746;2023-04-24T21:01:38;33.13;;;31.15;;
21569;SDS011;57598;50.888;4.746;2023-04-24T21:04:09;32.22;;;30.33;;
21569;SDS011;57598;50.888;4.746;2023-04-24T21:06:36;34.92;;;32.17;;
21569;SDS011;57598;50.888;4.746;2023-04-24T21:09:03;31.00;;;29.30;;
21569;SDS011;57598;50.888;4.746;2023-04-24T21:11:30;32.28;;;30.15;;
21569;SDS011;57598;50.888;4.746;2023-04-24T21:13:57;31.33;;;29.52;;
21569;SDS011;57598;50.888;4.746;2023-04-24T21:16:24;31.35;;;29.55;;
21569;SDS011;57598;50.888;4.746;2023-04-24T21:18:52;31.27;;;29.38;;
21569;SDS011;57598;50.888;4.746;2023-04-24T21:21:20;30.73;;;29.02;;
21569;SDS011;57598;50.888;4.746;2023-04-24T21:23:49;30.35;;;28.65;;
21569;SDS011;57598;50.888;4.746;2023-04-24T21:26:16;33.40;;;30.80;;
21569;SDS011;57598;50.888;4.746;2023-04-24T21:28:43;31.80;;;30.00;;
21569;SDS011;57598;50.888;4.746;2023-04-24T21:31:10;31.30;;;29.60;;
21569;SDS011;57598;50.888;4.746;2023-04-24T21:33:37;32.22;;;30.42;;
21569;SDS011;57598;50.888;4.746;2023-04-24T21:36:04;30.60;;;28.90;;
21569;SDS011;57598;50.888;4.746;2023-04-24T21:38:33;31.88;;;30.08;;
21569;SDS011;57598;50.888;4.746;2023-04-24T21:41:00;32.55;;;30.65;;
21569;SDS011;57598;50.888;4.746;2023-04-24T21:43:28;31.42;;;29.63;;
21569;SDS011;57598;50.888;4.746;2023-04-24T21:45:55;29.38;;;27.77;;
21569;SDS011;57598;50.888;4.746;2023-04-24T21:48:22;30.45;;;28.75;;
21569;SDS011;57598;50.888;4.746;2023-04-24T21:50:49;30.38;;;28.67;;
21569;SDS011;57598;50.888;4.746;2023-04-24T21:53:16;30.40;;;28.70;;
21569;SDS011;57598;50.888;4.746;2023-04-24T21:55:44;31.63;;;29.83;;
21569;SDS011;57598;50.888;4.746;2023-04-24T21:58:11;31.40;;;29.60;;
21569;SDS011;57598;50.888;4.746;2023-04-24T22:00:38;32.47;;;30.67;;
21569;SDS011;57598;50.888;4.746;2023-04-24T22:03:05;32.50;;;30.60;;
21569;SDS011;57598;50.888;4.746;2023-04-24T22:05:32;33.38;;;31.48;;
21569;SDS011;57598;50.888;4.746;2023-04-24T22:08:00;32.05;;;30.25;;
21569;SDS011;57598;50.888;4.746;2023-04-24T22:10:27;34.38;;;32.35;;
21569;SDS011;57598;50.888;4.746;2023-04-24T22:12:55;33.47;;;31.58;;
21569;SDS011;57598;50.888;4.746;2023-04-24T22:15:22;33.95;;;31.95;;
21569;SDS011;57598;50.888;4.746;2023-04-24T22:17:50;33.33;;;31.42;;
21569;SDS011;57598;50.888;4.746;2023-04-24T22:20:17;35.63;;;33.53;;
21569;SDS011;57598;50.888;4.746;2023-04-24T22:22:45;34.30;;;32.35;;
21569;SDS011;57598;50.888;4.746;2023-04-24T22:25:13;34.38;;;32.38;;
21569;SDS011;57598;50.888;4.746;2023-04-24T22:27:40;34.47;;;32.47;;
21569;SDS011;57598;50.888;4.746;2023-04-24T22:30:11;35.72;;;33.63;;
21569;SDS011;57598;50.888;4.746;2023-04-24T22:32:38;35.67;;;33.35;;
21569;SDS011;57598;50.888;4.746;2023-04-24T22:35:06;37.47;;;34.95;;
21569;SDS011;57598;50.888;4.746;2023-04-24T22:37:34;37.20;;;35.00;;
21569;SDS011;57598;50.888;4.746;2023-04-24T22:40:01;39.40;;;37.10;;
21569;SDS011;57598;50.888;4.746;2023-04-24T22:42:29;39.08;;;36.75;;
21569;SDS011;57598;50.888;4.746;2023-04-24T22:44:56;39.70;;;37.30;;
21569;SDS011;57598;50.888;4.746;2023-04-24T22:47:25;40.45;;;37.95;;
21569;SDS011;57598;50.888;4.746;2023-04-24T22:49:52;41.75;;;39.15;;
21569;SDS011;57598;50.888;4.746;2023-04-24T22:52:21;40.92;;;38.35;;
21569;SDS011;57598;50.888;4.746;2023-04-24T22:54:48;42.20;;;39.58;;
21569;SDS011;57598;50.888;4.746;2023-04-24T22:57:16;41.60;;;39.00;;
21569;SDS011;57598;50.888;4.746;2023-04-24T22:59:43;42.88;;;40.17;;
21569;SDS011;57598;50.888;4.746;2023-04-24T23:02:12;42.30;;;39.58;;
21569;SDS011;57598;50.888;4.746;2023-04-24T23:04:41;41.20;;;38.50;;
21569;SDS011;57598;50.888;4.746;2023-04-24T23:07:09;43.00;;;40.20;;
21569;SDS011;57598;50.888;4.746;2023-04-24T23:09:37;42.65;;;39.95;;
21569;SDS011;57598;50.888;4.746;2023-04-24T23:12:05;43.45;;;40.65;;
21569;SDS011;57598;50.888;4.746;2023-04-24T23:14:37;43.35;;;40.45;;
21569;SDS011;57598;50.888;4.746;2023-04-24T23:17:07;44.53;;;41.63;;
21569;SDS011;57598;50.888;4.746;2023-04-24T23:19:35;44.65;;;41.75;;
21569;SDS011;57598;50.888;4.746;2023-04-24T23:22:07;46.45;;;43.35;;
21569;SDS011;57598;50.888;4.746;2023-04-24T23:27:01;46.97;;;43.78;;
21569;SDS011;57598;50.888;4.746;2023-04-24T23:29:29;47.55;;;44.45;;
21569;SDS011;57598;50.888;4.746;2023-04-24T23:31:56;47.15;;;44.00;;
21569;SDS011;57598;50.888;4.746;2023-04-24T23:34:25;48.28;;;44.97;;
21569;SDS011;57598;50.888;4.746;2023-04-24T23:36:53;46.60;;;43.40;;
21569;SDS011;57598;50.888;4.746;2023-04-24T23:39:22;47.00;;;43.67;;
21569;SDS011;57598;50.888;4.746;2023-04-24T23:41:50;46.15;;;42.95;;
21569;SDS011;57598;50.888;4.746;2023-04-24T23:44:17;46.50;;;43.30;;
21569;SDS011;57598;50.888;4.746;2023-04-24T23:46:44;47.38;;;44.17;;
21569;SDS011;57598;50.888;4.746;2023-04-24T23:49:11;46.42;;;43.22;;
21569;SDS011;57598;50.888;4.746;2023-04-24T23:51:38;46.47;;;43.17;;
21569;SDS011;57598;50.888;4.746;2023-04-24T23:54:06;45.35;;;42.20;;
21569;SDS011;57598;50.888;4.746;2023-04-24T23:56:34;45.72;;;42.40;;
21569;SDS011;57598;50.888;4.746;2023-04-24T23:59:01;56.92;;;44.30;;
